Time;durP1;ratioP1;P1;durP2;ratioP2;P2;SDS_P1;SDS_P2;PMS_P1;PMS_P2;Temp;Humidity;BMP_temperature;BMP_pressure;BME280_temperature;BME280_humidity;BME280_pressure;Samples;Min_cycle;Max_cycle;Signal;HPM_P1;HPM_P2
2022/12/02 00:01:32;;;;;;;;;;;3.90;99.90;;;;;;5100824;28;19920;-68
2022/12/02 00:04:01;;;;;;;;;;;4.00;99.90;;;;;;5098335;28;19988;-68
2022/12/02 00:06:28;;;;;;;;;;;4.00;99.90;;;;;;5097528;28;19970;-68
2022/12/02 00:08:56;;;;;;;;;;;4.00;99.90;;;;;;5104186;28;19988;-70
2022/12/02 00:11:27;;;;;;;;;;;4.00;99.90;;;;;;5103881;28;20387;-68
2022/12/02 00:13:55;;;;;;;;;;;4.00;99.90;;;;;;5103886;28;20247;-68
2022/12/02 00:16:23;;;;;;;;;;;3.90;99.90;;;;;;5103483;28;19920;-68
2022/12/02 00:18:50;;;;;;;;;;;4.00;99.90;;;;;;5088871;28;20266;-69
2022/12/02 00:21:18;;;;;;;;;;;3.90;99.90;;;;;;5083267;28;19991;-67
2022/12/02 00:23:45;;;;;;;;;;;3.90;99.90;;;;;;5083727;28;20172;-68
2022/12/02 00:26:12;;;;;;;;;;;3.90;99.90;;;;;;5082992;28;19920;-68
2022/12/02 00:28:39;;;;;;;;;;;3.80;99.90;;;;;;5083659;28;19951;-68
2022/12/02 00:31:05;;;;;;;;;;;3.90;99.90;;;;;;5083698;28;19955;-69
2022/12/02 00:33:32;;;;;;;;;;;3.90;99.90;;;;;;5083522;28;19948;-68
2022/12/02 00:35:59;;;;;;;;;;;3.90;99.90;;;;;;5094155;28;20171;-68
2022/12/02 00:38:27;;;;;;;;;;;3.80;99.90;;;;;;5103805;28;19987;-68
2022/12/02 00:40:53;;;;;;;;;;;3.90;99.90;;;;;;5103873;28;19966;-68
2022/12/02 00:48:48;;;;;;;;;;;3.90;99.90;;;;;;5103500;28;19923;-68
2022/12/02 00:51:15;;;;;;;;;;;3.90;99.90;;;;;;5103580;28;19944;-69
2022/12/02 00:53:43;;;;;;;;;;;3.90;99.90;;;;;;5103487;28;19975;-68
2022/12/02 00:56:10;;;;;;;;;;;3.90;99.90;;;;;;5102862;28;19962;-69
2022/12/02 00:58:36;;;;;;;;;;;3.90;99.90;;;;;;5103665;28;20068;-69
2022/12/02 01:01:03;;;;;;;;;;;3.90;99.90;;;;;;5097454;28;19952;-69
2022/12/02 01:03:30;;;;;;;;;;;3.90;99.90;;;;;;5092913;28;19955;-68
2022/12/02 01:05:56;;;;;;;;;;;3.90;99.90;;;;;;5103068;28;19968;-68
2022/12/02 01:08:26;;;;;;;;;;;3.90;99.90;;;;;;5103337;28;19983;-68
2022/12/02 01:10:54;;;;;;;;;;;3.90;99.90;;;;;;5103350;28;19955;-69
2022/12/02 01:13:21;;;;;;;;;;;3.90;99.90;;;;;;5103183;28;19955;-69
2022/12/02 01:15:47;;;;;;;;;;;3.90;99.90;;;;;;5103152;28;19963;-69
2022/12/02 01:18:14;;;;;;;;;;;3.90;99.90;;;;;;5103246;28;19955;-68
2022/12/02 01:20:40;;;;;;;;;;;3.90;99.90;;;;;;5103446;28;19955;-68
2022/12/02 01:23:07;;;;;;;;;;;3.90;99.90;;;;;;5103310;28;19951;-69
2022/12/02 01:25:34;;;;;;;;;;;3.90;99.90;;;;;;5103201;28;19991;-68
2022/12/02 01:28:02;;;;;;;;;;;3.90;99.90;;;;;;5102500;28;20250;-68
2022/12/02 01:30:28;;;;;;;;;;;3.90;99.90;;;;;;5103303;28;19979;-68
2022/12/02 01:32:55;;;;;;;;;;;3.90;99.90;;;;;;5105775;28;19987;-69
2022/12/02 01:35:22;;;;;;;;;;;3.90;99.90;;;;;;5106986;28;19951;-68
2022/12/02 01:37:48;;;;;;;;;;;3.90;99.90;;;;;;5106452;28;19991;-69
2022/12/02 01:40:16;;;;;;;;;;;3.90;99.90;;;;;;5107004;28;20152;-69
2022/12/02 01:42:43;;;;;;;;;;;3.90;99.90;;;;;;5106893;28;19920;-69
2022/12/02 01:45:12;;;;;;;;;;;3.90;99.90;;;;;;5106775;28;19955;-68
2022/12/02 01:47:39;;;;;;;;;;;3.90;99.90;;;;;;5106247;28;19952;-68
2022/12/02 01:50:07;;;;;;;;;;;3.90;99.90;;;;;;5106857;28;20200;-68
2022/12/02 01:52:34;;;;;;;;;;;3.80;99.90;;;;;;5106412;28;20199;-68
2022/12/02 01:55:00;;;;;;;;;;;3.90;99.90;;;;;;5106477;28;20070;-68
2022/12/02 01:57:29;;;;;;;;;;;3.90;99.90;;;;;;5095564;28;19948;-68
2022/12/02 01:59:56;;;;;;;;;;;3.80;99.90;;;;;;5106417;28;19975;-68
2022/12/02 02:02:28;;;;;;;;;;;3.80;99.90;;;;;;5105545;28;19987;-69
2022/12/02 02:04:56;;;;;;;;;;;3.80;99.90;;;;;;5095816;28;19951;-69
2022/12/02 02:07:23;;;;;;;;;;;3.80;99.90;;;;;;5105764;28;19952;-68
2022/12/02 02:09:49;;;;;;;;;;;3.90;99.90;;;;;;5106254;28;19998;-69
2022/12/02 02:12:16;;;;;;;;;;;3.80;99.90;;;;;;5106368;28;19958;-68
2022/12/02 02:14:43;;;;;;;;;;;3.90;99.90;;;;;;5105709;28;19991;-68
2022/12/02 02:17:10;;;;;;;;;;;3.80;99.90;;;;;;5105552;28;19986;-68
2022/12/02 02:19:38;;;;;;;;;;;3.80;99.90;;;;;;5106117;28;19983;-69
2022/12/02 02:22:05;;;;;;;;;;;3.80;99.90;;;;;;5106180;28;20003;-68
2022/12/02 02:24:33;;;;;;;;;;;3.80;99.90;;;;;;5106075;28;19986;-68
2022/12/02 02:27:00;;;;;;;;;;;3.80;99.90;;;;;;5105082;28;19951;-68
2022/12/02 02:29:26;;;;;;;;;;;3.80;99.90;;;;;;5105836;28;19959;-68
2022/12/02 02:31:53;;;;;;;;;;;3.70;99.90;;;;;;5105930;28;19959;-67
2022/12/02 02:34:20;;;;;;;;;;;3.80;99.90;;;;;;5105868;28;19920;-69
2022/12/02 02:36:46;;;;;;;;;;;3.80;99.90;;;;;;5105168;28;19977;-68
2022/12/02 02:39:13;;;;;;;;;;;3.80;99.90;;;;;;5105505;28;19955;-69
2022/12/02 02:41:41;;;;;;;;;;;3.80;99.90;;;;;;5105783;28;19951;-68
2022/12/02 02:44:08;;;;;;;;;;;3.80;99.90;;;;;;5105009;28;19948;-69
2022/12/02 02:46:35;;;;;;;;;;;3.70;99.90;;;;;;5104785;28;19959;-68
2022/12/02 02:49:01;;;;;;;;;;;3.70;99.90;;;;;;5105614;28;19952;-69
2022/12/02 02:51:28;;;;;;;;;;;3.70;99.90;;;;;;5105601;28;19947;-68
2022/12/02 02:53:55;;;;;;;;;;;3.60;99.90;;;;;;5105256;28;20243;-68
2022/12/02 02:56:21;;;;;;;;;;;3.60;99.90;;;;;;5104543;28;19992;-68
2022/12/02 02:58:49;;;;;;;;;;;3.60;99.90;;;;;;5105333;28;19951;-68
2022/12/02 03:01:18;;;;;;;;;;;3.60;99.90;;;;;;5098796;28;19959;-68
2022/12/02 03:03:47;;;;;;;;;;;3.60;99.90;;;;;;5093149;28;19920;-69
2022/12/02 03:06:14;;;;;;;;;;;3.60;99.90;;;;;;5100475;28;19994;-69
2022/12/02 03:08:42;;;;;;;;;;;3.60;99.90;;;;;;5104810;28;20282;-68
2022/12/02 03:11:09;;;;;;;;;;;3.60;99.90;;;;;;5105296;28;20198;-68
2022/12/02 03:13:36;;;;;;;;;;;3.60;99.90;;;;;;5104724;28;19948;-68
2022/12/02 03:16:06;;;;;;;;;;;3.60;99.90;;;;;;5104092;28;20250;-68
2022/12/02 03:18:33;;;;;;;;;;;3.60;99.90;;;;;;5105037;28;19959;-70
2022/12/02 03:21:00;;;;;;;;;;;3.50;99.90;;;;;;5104998;28;20093;-69
2022/12/02 03:23:27;;;;;;;;;;;3.50;99.90;;;;;;5104812;28;19948;-68
2022/12/02 03:25:54;;;;;;;;;;;3.60;99.90;;;;;;5104089;28;20008;-69
2022/12/02 03:28:20;;;;;;;;;;;3.50;99.90;;;;;;5104671;28;19952;-69
2022/12/02 03:30:47;;;;;;;;;;;3.50;99.90;;;;;;5104902;28;20111;-68
2022/12/02 03:33:15;;;;;;;;;;;3.50;99.90;;;;;;5104573;28;20295;-68
2022/12/02 03:35:41;;;;;;;;;;;3.50;99.90;;;;;;5104411;28;19959;-68
2022/12/02 03:38:08;;;;;;;;;;;3.50;99.90;;;;;;5104274;28;19962;-68
2022/12/02 03:40:35;;;;;;;;;;;3.50;99.90;;;;;;5104698;28;19951;-68
2022/12/02 03:43:02;;;;;;;;;;;3.40;99.90;;;;;;5104078;28;19995;-68
2022/12/02 03:45:29;;;;;;;;;;;3.40;99.90;;;;;;5104460;28;19992;-68
2022/12/02 03:47:56;;;;;;;;;;;3.40;99.90;;;;;;5103785;28;19948;-69
2022/12/02 03:50:24;;;;;;;;;;;3.30;99.90;;;;;;5104481;28;19951;-69
2022/12/02 03:52:50;;;;;;;;;;;3.40;99.90;;;;;;5104380;28;20170;-68
2022/12/02 03:55:17;;;;;;;;;;;3.40;99.90;;;;;;5103382;28;19947;-68
2022/12/02 03:57:44;;;;;;;;;;;3.40;99.90;;;;;;5103312;28;20179;-68
2022/12/02 04:00:11;;;;;;;;;;;3.40;99.90;;;;;;5103938;28;19970;-69
2022/12/02 04:02:38;;;;;;;;;;;3.40;99.90;;;;;;5096897;28;19952;-68
2022/12/02 04:05:05;;;;;;;;;;;3.40;99.90;;;;;;5083785;28;19948;-68
2022/12/02 04:07:33;;;;;;;;;;;3.30;99.90;;;;;;5083232;28;19995;-68
2022/12/02 04:09:59;;;;;;;;;;;3.30;99.90;;;;;;5083407;28;19951;-69
2022/12/02 04:12:26;;;;;;;;;;;3.30;99.90;;;;;;5083704;28;20120;-67
2022/12/02 04:14:52;;;;;;;;;;;3.30;99.90;;;;;;5083436;28;19955;-68
2022/12/02 04:17:19;;;;;;;;;;;3.30;99.90;;;;;;5089021;28;19963;-68
2022/12/02 04:19:46;;;;;;;;;;;3.30;99.90;;;;;;5104034;28;19962;-69
2022/12/02 04:22:12;;;;;;;;;;;3.30;99.90;;;;;;5103938;28;19951;-68
2022/12/02 04:24:40;;;;;;;;;;;3.20;99.90;;;;;;5103675;28;19955;-68
2022/12/02 04:27:07;;;;;;;;;;;3.20;99.90;;;;;;5103189;28;19988;-68
2022/12/02 04:29:33;;;;;;;;;;;3.10;99.90;;;;;;5103772;28;19956;-68
2022/12/02 04:32:00;;;;;;;;;;;3.20;99.90;;;;;;5103764;28;20157;-68
2022/12/02 04:34:27;;;;;;;;;;;3.20;99.90;;;;;;5103531;28;19955;-68
2022/12/02 04:36:53;;;;;;;;;;;3.20;99.90;;;;;;5103216;28;19943;-68
2022/12/02 04:39:20;;;;;;;;;;;3.10;99.90;;;;;;5103731;28;19959;-68
2022/12/02 04:41:48;;;;;;;;;;;3.10;99.90;;;;;;5103762;28;19958;-68
2022/12/02 04:44:14;;;;;;;;;;;3.10;99.90;;;;;;5103697;28;19955;-68
2022/12/02 04:46:41;;;;;;;;;;;3.10;99.90;;;;;;5102987;28;19955;-68
2022/12/02 04:49:08;;;;;;;;;;;3.10;99.90;;;;;;5103657;28;20165;-69
2022/12/02 04:51:34;;;;;;;;;;;3.10;99.90;;;;;;5103457;28;19951;-68
2022/12/02 04:54:01;;;;;;;;;;;3.10;99.90;;;;;;5103389;28;19952;-68
2022/12/02 04:56:28;;;;;;;;;;;3.10;99.90;;;;;;5103137;28;19958;-69
2022/12/02 04:58:56;;;;;;;;;;;3.10;99.90;;;;;;5103578;28;19971;-68
2022/12/02 05:01:22;;;;;;;;;;;3.10;99.90;;;;;;5103660;28;19979;-69
2022/12/02 05:03:49;;;;;;;;;;;3.00;99.90;;;;;;5103151;28;20246;-68
2022/12/02 05:06:15;;;;;;;;;;;3.00;99.90;;;;;;5103530;28;20006;-68
2022/12/02 05:08:42;;;;;;;;;;;3.00;99.90;;;;;;5107166;28;20200;-69
2022/12/02 05:11:09;;;;;;;;;;;3.00;99.90;;;;;;5107599;28;20150;-68
2022/12/02 05:13:35;;;;;;;;;;;3.00;99.90;;;;;;5107070;28;19959;-68
2022/12/02 05:16:03;;;;;;;;;;;3.00;99.90;;;;;;5106365;28;19956;-68
2022/12/02 05:18:30;;;;;;;;;;;3.00;99.90;;;;;;5107082;28;19963;-68
2022/12/02 05:20:57;;;;;;;;;;;3.00;99.90;;;;;;5125885;28;19962;-69
2022/12/02 05:23:23;;;;;;;;;;;3.10;99.90;;;;;;5127661;28;19951;-69
2022/12/02 05:25:50;;;;;;;;;;;3.10;99.90;;;;;;5126945;28;19955;-68
2022/12/02 05:28:16;;;;;;;;;;;3.10;99.90;;;;;;5127077;28;19966;-68
2022/12/02 05:30:43;;;;;;;;;;;3.10;99.90;;;;;;5124963;28;19982;-69
2022/12/02 05:33:11;;;;;;;;;;;3.10;99.90;;;;;;5112540;28;19983;-69
2022/12/02 05:35:38;;;;;;;;;;;3.10;99.90;;;;;;5116310;28;19951;-69
2022/12/02 05:38:05;;;;;;;;;;;3.00;99.90;;;;;;5086230;28;20172;-69
2022/12/02 05:40:31;;;;;;;;;;;3.10;99.90;;;;;;5088313;28;19995;-69
2022/12/02 05:43:00;;;;;;;;;;;3.10;99.90;;;;;;5106433;28;20234;-69
2022/12/02 05:45:28;;;;;;;;;;;3.10;99.90;;;;;;5082908;28;19947;-68
2022/12/02 05:47:55;;;;;;;;;;;3.10;99.90;;;;;;5085622;28;19963;-68
2022/12/02 05:50:23;;;;;;;;;;;3.10;99.90;;;;;;5086390;28;20006;-69
2022/12/02 05:52:49;;;;;;;;;;;3.10;99.90;;;;;;5086262;28;19988;-68
2022/12/02 05:55:18;;;;;;;;;;;3.10;99.90;;;;;;5086345;28;19927;-68
2022/12/02 05:57:45;;;;;;;;;;;3.10;99.90;;;;;;5085717;28;19982;-69
2022/12/02 06:00:16;;;;;;;;;;;3.10;99.90;;;;;;5086274;28;19988;-69
2022/12/02 06:02:45;;;;;;;;;;;3.10;99.90;;;;;;5105057;28;19947;-69
2022/12/02 06:05:19;;;;;;;;;;;3.10;99.90;;;;;;5096331;28;19926;-70
2022/12/02 06:07:48;;;;;;;;;;;3.10;99.90;;;;;;5097772;28;19920;-69
2022/12/02 06:10:19;;;;;;;;;;;3.00;99.90;;;;;;5105883;28;20175;-69
2022/12/02 06:12:46;;;;;;;;;;;3.00;99.90;;;;;;5105946;28;20233;-69
2022/12/02 06:15:13;;;;;;;;;;;3.00;99.90;;;;;;5106278;28;19974;-69
2022/12/02 06:17:40;;;;;;;;;;;3.00;99.90;;;;;;5112302;28;20142;-69
2022/12/02 06:20:10;;;;;;;;;;;3.00;99.90;;;;;;5103549;28;19955;-71
2022/12/02 06:22:38;;;;;;;;;;;3.00;99.90;;;;;;5105535;28;19952;-68
2022/12/02 06:25:18;;;;;;;;;;;3.00;99.90;;;;;;5106025;28;19983;-69
2022/12/02 06:27:44;;;;;;;;;;;3.00;99.90;;;;;;5105232;28;20002;-70
2022/12/02 06:30:14;;;;;;;;;;;3.00;99.90;;;;;;5106135;28;19951;-68
2022/12/02 06:32:42;;;;;;;;;;;3.00;99.90;;;;;;5106008;28;19962;-68
2022/12/02 06:35:19;;;;;;;;;;;3.00;99.90;;;;;;5105862;28;20160;-68
2022/12/02 06:37:45;;;;;;;;;;;3.00;99.90;;;;;;5104872;28;20205;-68
2022/12/02 06:40:22;;;;;;;;;;;2.90;99.90;;;;;;5105959;28;19954;-70
2022/12/02 06:42:49;;;;;;;;;;;2.90;99.90;;;;;;5105561;28;19920;-68
2022/12/02 06:45:21;;;;;;;;;;;2.90;99.90;;;;;;5105497;28;19948;-68
2022/12/02 06:48:15;;;;;;;;;;;2.90;99.90;;;;;;5105064;28;20000;-68
2022/12/02 06:50:43;;;;;;;;;;;2.90;99.90;;;;;;5105658;28;19924;-68
2022/12/02 06:53:23;;;;;;;;;;;2.80;99.90;;;;;;5105564;28;20139;-68
2022/12/02 06:55:52;;;;;;;;;;;2.90;99.90;;;;;;5105127;28;19942;-68
2022/12/02 06:58:39;;;;;;;;;;;2.90;99.90;;;;;;5105194;28;19952;-68
2022/12/02 07:01:10;;;;;;;;;;;2.80;99.90;;;;;;5105238;28;20164;-68
2022/12/02 07:03:41;;;;;;;;;;;2.80;99.90;;;;;;5105120;28;19920;-68
2022/12/02 07:06:13;;;;;;;;;;;2.80;99.90;;;;;;5104663;28;20144;-68
2022/12/02 07:08:40;;;;;;;;;;;2.80;99.90;;;;;;5104937;28;19958;-67
2022/12/02 07:11:14;;;;;;;;;;;2.70;99.90;;;;;;5084704;28;19989;-68
2022/12/02 07:13:41;;;;;;;;;;;2.80;99.90;;;;;;5084566;28;20224;-68
2022/12/02 07:16:28;;;;;;;;;;;2.70;99.90;;;;;;5083878;28;20282;-68
2022/12/02 07:18:55;;;;;;;;;;;2.70;99.90;;;;;;5084698;28;20409;-68
2022/12/02 07:21:21;;;;;;;;;;;2.70;99.90;;;;;;5084506;28;19958;-68
2022/12/02 07:23:48;;;;;;;;;;;2.70;99.90;;;;;;5085598;28;19955;-68
2022/12/02 07:26:16;;;;;;;;;;;2.70;99.90;;;;;;5103963;28;19932;-68
2022/12/02 07:28:44;;;;;;;;;;;2.70;99.90;;;;;;5104401;28;20258;-68
2022/12/02 07:31:13;;;;;;;;;;;2.70;99.90;;;;;;5104611;28;20230;-68
2022/12/02 07:33:39;;;;;;;;;;;2.80;99.90;;;;;;5104934;28;19947;-67
2022/12/02 07:36:06;;;;;;;;;;;2.80;99.90;;;;;;5103780;28;19951;-68
2022/12/02 07:38:33;;;;;;;;;;;2.70;99.90;;;;;;5104682;28;19928;-68
2022/12/02 07:41:00;;;;;;;;;;;2.70;99.90;;;;;;5104840;28;19919;-68
2022/12/02 07:43:28;;;;;;;;;;;2.60;99.90;;;;;;5104551;28;19952;-68
2022/12/02 07:45:54;;;;;;;;;;;2.70;99.90;;;;;;5103915;28;19983;-68
2022/12/02 07:48:21;;;;;;;;;;;2.60;99.90;;;;;;5104083;28;20187;-69
2022/12/02 07:50:47;;;;;;;;;;;2.70;99.90;;;;;;5104586;28;20176;-68
2022/12/02 07:53:14;;;;;;;;;;;2.70;99.90;;;;;;5104136;28;20195;-68
2022/12/02 07:55:41;;;;;;;;;;;2.70;99.90;;;;;;5104028;28;19962;-68
2022/12/02 07:58:07;;;;;;;;;;;2.70;99.90;;;;;;5103905;28;19946;-68
2022/12/02 08:00:35;;;;;;;;;;;2.70;99.90;;;;;;5104420;28;19987;-68
2022/12/02 08:03:02;;;;;;;;;;;2.70;99.90;;;;;;5104393;28;19955;-68
2022/12/02 08:05:29;;;;;;;;;;;2.70;99.90;;;;;;5103944;28;19944;-68
2022/12/02 08:07:55;;;;;;;;;;;2.60;99.90;;;;;;5103250;28;19955;-68
2022/12/02 08:10:22;;;;;;;;;;;2.60;99.90;;;;;;5104349;28;19951;-68
2022/12/02 08:12:49;;;;;;;;;;;2.60;99.90;;;;;;5103846;28;19951;-68
2022/12/02 08:15:15;;;;;;;;;;;2.60;99.90;;;;;;5104136;28;20169;-68
2022/12/02 08:17:43;;;;;;;;;;;2.60;99.90;;;;;;5103507;28;19947;-67
2022/12/02 08:20:11;;;;;;;;;;;2.50;99.90;;;;;;5104017;28;19997;-68
2022/12/02 08:22:38;;;;;;;;;;;2.60;99.90;;;;;;5090961;28;19951;-68
2022/12/02 08:25:05;;;;;;;;;;;2.60;99.90;;;;;;5095495;28;20031;-69
2022/12/02 08:27:32;;;;;;;;;;;2.60;99.90;;;;;;5102623;28;19952;-68
2022/12/02 08:29:58;;;;;;;;;;;2.70;99.90;;;;;;5095753;28;20271;-68
2022/12/02 08:32:25;;;;;;;;;;;2.70;99.90;;;;;;5083734;28;19959;-68
2022/12/02 08:34:53;;;;;;;;;;;2.70;99.90;;;;;;5085538;28;19924;-70
2022/12/02 08:37:20;;;;;;;;;;;2.70;99.90;;;;;;5103084;28;19954;-68
2022/12/02 08:39:46;;;;;;;;;;;2.70;99.90;;;;;;5085200;28;19920;-68
2022/12/02 08:42:13;;;;;;;;;;;2.70;99.90;;;;;;5083049;28;19958;-68
2022/12/02 08:44:40;;;;;;;;;;;2.60;99.90;;;;;;5083646;28;19920;-70
2022/12/02 08:47:07;;;;;;;;;;;2.60;99.90;;;;;;5083389;28;20073;-68
2022/12/02 08:49:34;;;;;;;;;;;2.50;99.90;;;;;;5083511;28;19962;-68
2022/12/02 08:52:02;;;;;;;;;;;2.50;99.90;;;;;;5083175;28;19947;-68
2022/12/02 08:54:28;;;;;;;;;;;2.50;99.90;;;;;;5083380;28;19947;-68
2022/12/02 08:56:55;;;;;;;;;;;2.60;99.90;;;;;;5082547;28;19951;-68
2022/12/02 08:59:22;;;;;;;;;;;2.50;99.90;;;;;;5083405;28;19928;-68
2022/12/02 09:01:48;;;;;;;;;;;2.50;99.90;;;;;;5083304;28;20179;-68
2022/12/02 09:04:15;;;;;;;;;;;2.50;99.90;;;;;;5082931;28;19921;-68
2022/12/02 09:06:42;;;;;;;;;;;2.50;99.90;;;;;;5082627;28;19964;-68
2022/12/02 09:09:10;;;;;;;;;;;2.50;99.90;;;;;;5083288;28;19941;-68
2022/12/02 09:11:37;;;;;;;;;;;2.50;99.90;;;;;;5083641;28;19920;-68
2022/12/02 09:14:04;;;;;;;;;;;2.50;99.90;;;;;;5083405;28;20266;-68
2022/12/02 09:16:30;;;;;;;;;;;2.50;99.90;;;;;;5082384;28;19927;-68
2022/12/02 09:18:57;;;;;;;;;;;2.50;99.90;;;;;;5083027;28;19920;-68
2022/12/02 09:21:24;;;;;;;;;;;2.60;99.90;;;;;;5083388;28;19956;-68
2022/12/02 09:23:50;;;;;;;;;;;2.60;99.90;;;;;;5099155;28;19983;-68
2022/12/02 09:26:19;;;;;;;;;;;2.60;99.90;;;;;;5102511;28;19992;-68
2022/12/02 09:28:45;;;;;;;;;;;2.60;99.90;;;;;;5103280;28;19920;-68
2022/12/02 09:31:12;;;;;;;;;;;2.60;99.90;;;;;;5083132;28;19920;-68
2022/12/02 09:33:39;;;;;;;;;;;2.60;99.90;;;;;;5083071;28;19987;-68
2022/12/02 09:36:06;;;;;;;;;;;2.60;99.90;;;;;;5094438;28;19959;-69
2022/12/02 09:38:32;;;;;;;;;;;2.60;99.90;;;;;;5103347;28;19951;-68
2022/12/02 09:40:59;;;;;;;;;;;2.60;99.90;;;;;;5103408;28;19952;-68
2022/12/02 09:43:27;;;;;;;;;;;2.60;99.90;;;;;;5102988;28;19950;-68
2022/12/02 09:45:54;;;;;;;;;;;2.60;99.90;;;;;;5102919;28;19927;-68
2022/12/02 09:48:21;;;;;;;;;;;2.60;99.90;;;;;;5102311;28;19994;-68
2022/12/02 09:50:48;;;;;;;;;;;2.60;99.90;;;;;;5102814;28;20277;-68
2022/12/02 09:53:16;;;;;;;;;;;2.60;99.90;;;;;;5103995;28;20246;-68
2022/12/02 09:55:42;;;;;;;;;;;2.60;99.90;;;;;;5106245;28;20158;-69
2022/12/02 09:58:10;;;;;;;;;;;2.60;99.90;;;;;;5106351;28;20170;-68
2022/12/02 10:00:38;;;;;;;;;;;2.60;99.90;;;;;;5106736;28;19956;-68
2022/12/02 10:03:06;;;;;;;;;;;2.60;99.90;;;;;;5106292;28;19951;-68
2022/12/02 10:05:33;;;;;;;;;;;2.60;99.90;;;;;;5106301;28;20265;-68
2022/12/02 10:08:00;;;;;;;;;;;2.60;99.90;;;;;;5105793;28;19955;-68
2022/12/02 10:10:27;;;;;;;;;;;2.60;99.90;;;;;;5106575;28;20156;-68
2022/12/02 10:12:54;;;;;;;;;;;2.60;99.90;;;;;;5105971;28;20289;-68
2022/12/02 10:15:22;;;;;;;;;;;2.50;99.90;;;;;;5106327;28;20168;-68
2022/12/02 10:17:50;;;;;;;;;;;2.50;99.90;;;;;;5105602;28;19950;-68
2022/12/02 10:20:18;;;;;;;;;;;2.50;99.90;;;;;;5106429;28;19955;-68
2022/12/02 10:23:03;;;;;;;;;;;2.50;99.90;;;;;;5099081;28;19956;-68
2022/12/02 10:25:30;;;;;;;;;;;2.50;99.90;;;;;;5085838;28;19983;-68
2022/12/02 10:27:57;;;;;;;;;;;2.60;99.90;;;;;;5084717;28;19920;-68
2022/12/02 10:30:25;;;;;;;;;;;2.60;99.90;;;;;;5085715;28;19979;-75
2022/12/02 10:32:58;;;;;;;;;;;2.60;99.90;;;;;;5085300;28;19988;-68
2022/12/02 10:35:25;;;;;;;;;;;2.60;99.90;;;;;;5091844;28;19970;-68
2022/12/02 10:37:52;;;;;;;;;;;2.60;99.90;;;;;;5105017;28;19920;-68
2022/12/02 10:40:20;;;;;;;;;;;2.60;99.90;;;;;;5105361;28;19955;-68
2022/12/02 10:42:46;;;;;;;;;;;2.70;99.90;;;;;;5105030;28;19921;-68
2022/12/02 10:45:18;;;;;;;;;;;2.70;99.90;;;;;;5105671;28;19955;-68
2022/12/02 10:47:46;;;;;;;;;;;2.70;99.90;;;;;;5104845;28;19971;-68
2022/12/02 10:50:18;;;;;;;;;;;2.70;99.90;;;;;;5105508;28;19964;-68
2022/12/02 10:52:46;;;;;;;;;;;2.70;99.90;;;;;;5105143;28;19955;-68
2022/12/02 10:55:13;;;;;;;;;;;2.70;99.90;;;;;;5092962;28;19987;-68
2022/12/02 10:57:42;;;;;;;;;;;2.70;99.90;;;;;;5103838;28;19955;-68
2022/12/02 11:00:13;;;;;;;;;;;2.70;99.90;;;;;;5105414;28;19955;-68
2022/12/02 11:02:44;;;;;;;;;;;2.70;99.90;;;;;;5105002;28;19955;-68
2022/12/02 11:05:14;;;;;;;;;;;2.70;99.90;;;;;;5104453;28;19987;-68
2022/12/02 11:07:49;;;;;;;;;;;2.70;99.90;;;;;;5104588;28;19923;-68
2022/12/02 11:10:19;;;;;;;;;;;2.70;99.90;;;;;;5105261;28;19986;-68
2022/12/02 11:13:00;;;;;;;;;;;2.70;99.90;;;;;;5092244;28;19921;-68
2022/12/02 11:15:34;;;;;;;;;;;2.70;99.90;;;;;;5084568;28;20222;-68
2022/12/02 11:18:01;;;;;;;;;;;2.70;99.90;;;;;;5084192;28;20200;-67
2022/12/02 11:20:32;;;;;;;;;;;2.70;99.90;;;;;;5084582;28;19959;-68
2022/12/02 11:23:25;;;;;;;;;;;2.70;99.90;;;;;;5084693;28;20108;-68
2022/12/02 11:25:55;;;;;;;;;;;2.70;99.90;;;;;;5084354;28;19952;-69
2022/12/02 11:28:46;;;;;;;;;;;2.80;99.90;;;;;;5084173;28;19991;-68
2022/12/02 11:31:20;;;;;;;;;;;2.70;99.90;;;;;;5084537;28;19943;-68
2022/12/02 11:34:00;;;;;;;;;;;2.70;99.90;;;;;;5104624;28;19920;-68
2022/12/02 11:36:28;;;;;;;;;;;2.70;99.90;;;;;;5104089;28;19920;-68
2022/12/02 11:39:00;;;;;;;;;;;2.60;99.90;;;;;;5104415;28;19944;-67
2022/12/02 11:41:28;;;;;;;;;;;2.60;99.90;;;;;;5104831;28;19962;-68
2022/12/02 11:44:08;;;;;;;;;;;2.60;99.90;;;;;;5104656;28;20156;-68
2022/12/02 11:46:42;;;;;;;;;;;2.60;99.90;;;;;;5103620;28;19931;-68
2022/12/02 11:49:31;;;;;;;;;;;2.70;99.90;;;;;;5104574;28;19959;-69
2022/12/02 11:52:06;;;;;;;;;;;2.60;99.90;;;;;;5102039;28;19951;-68
2022/12/02 11:54:36;;;;;;;;;;;2.60;99.90;;;;;;5101842;28;19971;-67
2022/12/02 11:57:04;;;;;;;;;;;2.60;99.90;;;;;;5097664;28;19982;-68
2022/12/02 11:59:31;;;;;;;;;;;2.60;99.90;;;;;;5092504;28;20167;-68
2022/12/02 12:02:08;;;;;;;;;;;2.60;99.90;;;;;;5083832;28;19951;-68
2022/12/02 12:04:35;;;;;;;;;;;2.60;99.90;;;;;;5079041;28;19935;-68
2022/12/02 12:07:01;;;;;;;;;;;2.60;99.90;;;;;;5083021;28;19955;-68
2022/12/02 12:09:28;;;;;;;;;;;2.60;99.90;;;;;;5083637;28;19959;-68
2022/12/02 12:12:16;;;;;;;;;;;2.60;99.90;;;;;;5083652;28;19948;-68
2022/12/02 12:15:03;;;;;;;;;;;2.60;99.90;;;;;;5083924;28;19924;-68
2022/12/02 12:17:42;;;;;;;;;;;2.60;99.90;;;;;;5075854;28;19920;-68
2022/12/02 12:20:23;;;;;;;;;;;2.60;99.90;;;;;;5093746;28;19948;-68
2022/12/02 12:22:50;;;;;;;;;;;2.60;99.90;;;;;;5103018;28;19920;-68
2022/12/02 12:25:29;;;;;;;;;;;2.60;99.90;;;;;;5104059;28;19952;-68
2022/12/02 12:27:57;;;;;;;;;;;2.60;99.90;;;;;;5103385;28;20346;-68
2022/12/02 12:30:24;;;;;;;;;;;2.70;99.90;;;;;;5104074;28;19920;-67
2022/12/02 12:32:50;;;;;;;;;;;2.70;99.90;;;;;;5103929;28;19986;-68
2022/12/02 12:35:17;;;;;;;;;;;2.70;99.90;;;;;;5103901;28;19947;-68
2022/12/02 12:37:44;;;;;;;;;;;2.70;99.90;;;;;;5102838;28;20212;-68
2022/12/02 12:40:13;;;;;;;;;;;2.70;99.90;;;;;;5103034;28;20201;-68
2022/12/02 12:42:39;;;;;;;;;;;2.70;99.90;;;;;;5103778;28;19952;-68
2022/12/02 12:45:08;;;;;;;;;;;2.70;99.90;;;;;;5102298;28;20008;-68
2022/12/02 12:47:34;;;;;;;;;;;2.70;99.90;;;;;;5103247;28;19927;-67
2022/12/02 12:50:02;;;;;;;;;;;2.70;99.90;;;;;;5103699;28;19962;-68
2022/12/02 12:52:28;;;;;;;;;;;2.70;99.90;;;;;;5103778;28;19927;-68
2022/12/02 12:54:55;;;;;;;;;;;2.70;99.90;;;;;;5103660;28;19942;-68
2022/12/02 12:57:22;;;;;;;;;;;2.70;99.90;;;;;;5100057;28;19963;-68
2022/12/02 12:59:48;;;;;;;;;;;2.70;99.90;;;;;;5103606;28;19920;-68
2022/12/02 13:02:16;;;;;;;;;;;2.70;99.90;;;;;;5103651;28;19954;-68
2022/12/02 13:04:43;;;;;;;;;;;2.60;99.90;;;;;;5084290;28;20240;-68
2022/12/02 13:07:09;;;;;;;;;;;2.60;99.90;;;;;;5082471;28;19974;-68
2022/12/02 13:09:36;;;;;;;;;;;2.60;99.90;;;;;;5083313;28;20166;-68
2022/12/02 13:12:03;;;;;;;;;;;2.60;99.90;;;;;;5083309;28;20152;-73
2022/12/02 13:14:29;;;;;;;;;;;2.70;99.90;;;;;;5082709;28;20148;-68
2022/12/02 13:16:56;;;;;;;;;;;2.60;99.90;;;;;;5082307;28;19920;-68
2022/12/02 13:19:24;;;;;;;;;;;2.60;99.90;;;;;;5085180;28;19952;-69
2022/12/02 13:21:51;;;;;;;;;;;2.60;99.90;;;;;;5121103;28;19920;-69
2022/12/02 13:24:17;;;;;;;;;;;2.50;99.90;;;;;;5123633;28;20176;-68
2022/12/02 13:26:44;;;;;;;;;;;2.50;99.90;;;;;;5122911;28;19974;-67
2022/12/02 13:29:11;;;;;;;;;;;2.50;99.90;;;;;;5127776;28;20007;-68
2022/12/02 13:31:37;;;;;;;;;;;2.50;99.90;;;;;;5127717;28;19951;-68
2022/12/02 13:34:04;;;;;;;;;;;2.50;99.90;;;;;;5127497;28;19950;-69
2022/12/02 13:36:32;;;;;;;;;;;2.50;99.90;;;;;;5110903;28;20007;-68
2022/12/02 13:38:58;;;;;;;;;;;2.50;99.90;;;;;;5106897;28;19967;-68
2022/12/02 13:41:25;;;;;;;;;;;2.50;99.90;;;;;;5107127;28;19921;-67
2022/12/02 13:43:52;;;;;;;;;;;2.40;99.90;;;;;;5106894;28;20172;-67
2022/12/02 13:46:18;;;;;;;;;;;2.40;99.90;;;;;;5105937;28;19959;-67
2022/12/02 13:48:45;;;;;;;;;;;2.40;99.90;;;;;;5106880;28;19920;-68
2022/12/02 13:51:12;;;;;;;;;;;2.40;99.90;;;;;;5106689;28;20279;-68
2022/12/02 13:53:42;;;;;;;;;;;2.40;99.90;;;;;;5106580;28;20223;-68
2022/12/02 13:56:09;;;;;;;;;;;2.40;99.90;;;;;;5103942;28;19920;-68
2022/12/02 13:58:35;;;;;;;;;;;2.40;99.90;;;;;;5106413;28;20116;-67
2022/12/02 14:01:02;;;;;;;;;;;2.50;99.90;;;;;;5106780;28;19955;-67
2022/12/02 14:03:30;;;;;;;;;;;2.40;99.90;;;;;;5102241;28;19927;-69
2022/12/02 14:05:57;;;;;;;;;;;2.40;99.90;;;;;;5105693;28;19954;-68
2022/12/02 14:08:24;;;;;;;;;;;2.40;99.90;;;;;;5106325;28;19991;-68
2022/12/02 14:10:52;;;;;;;;;;;2.50;99.90;;;;;;5106484;28;19958;-68
2022/12/02 14:13:18;;;;;;;;;;;2.50;99.90;;;;;;5106099;28;19959;-67
2022/12/02 14:15:45;;;;;;;;;;;2.50;99.90;;;;;;5115663;28;19920;-68
2022/12/02 14:18:12;;;;;;;;;;;2.50;99.90;;;;;;5096576;28;19999;-68
2022/12/02 14:20:39;;;;;;;;;;;2.50;99.90;;;;;;5101874;28;19920;-67
2022/12/02 14:23:07;;;;;;;;;;;2.50;99.90;;;;;;5105807;28;19955;-68
2022/12/02 14:25:33;;;;;;;;;;;2.50;99.90;;;;;;5105928;28;19920;-68
2022/12/02 14:28:01;;;;;;;;;;;2.50;99.90;;;;;;5105278;28;19951;-68
2022/12/02 14:30:28;;;;;;;;;;;2.50;99.90;;;;;;5106110;28;19955;-68
2022/12/02 14:32:55;;;;;;;;;;;2.50;99.90;;;;;;5106020;28;20259;-68
2022/12/02 14:35:21;;;;;;;;;;;2.50;99.90;;;;;;5105822;28;19955;-68
2022/12/02 14:37:48;;;;;;;;;;;2.50;99.90;;;;;;5105121;28;19920;-68
2022/12/02 14:40:15;;;;;;;;;;;2.50;99.90;;;;;;5105147;28;20151;-68
2022/12/02 14:42:41;;;;;;;;;;;2.50;99.90;;;;;;5105579;28;19951;-68